sensor_id;sensor_type;location;lat;lon;timestamp;pressure;altitude;pressure_sealevel;temperature;humidity
11880;BME280;5999;43.256;27.816;2022-08-27T00:01:45;99636.34;;;25.04;100.00
11880;BME280;5999;43.256;27.816;2022-08-27T00:04:12;99635.16;;;25.07;100.00
11880;BME280;5999;43.256;27.816;2022-08-27T00:06:39;99629.94;;;25.05;100.00
11880;BME280;5999;43.256;27.816;2022-08-27T00:09:06;99629.41;;;25.10;100.00
11880;BME280;5999;43.256;27.816;2022-08-27T00:11:34;99623.78;;;25.20;100.00
11880;BME280;5999;43.256;27.816;2022-08-27T00:14:03;99618.38;;;25.20;100.00
11880;BME280;5999;43.256;27.816;2022-08-27T00:16:30;99623.44;;;25.23;100.00
11880;BME280;5999;43.256;27.816;2022-08-27T00:18:58;99617.88;;;25.24;100.00
11880;BME280;5999;43.256;27.816;2022-08-27T00:21:25;99610.28;;;25.28;100.00
11880;BME280;5999;43.256;27.816;2022-08-27T00:23:52;99608.34;;;25.37;100.00
11880;BME280;5999;43.256;27.816;2022-08-27T00:26:19;99607.50;;;25.36;100.00
11880;BME280;5999;43.256;27.816;2022-08-27T00:28:46;99605.47;;;25.38;100.00
11880;BME280;5999;43.256;27.816;2022-08-27T00:31:13;99606.47;;;25.37;100.00
11880;BME280;5999;43.256;27.816;2022-08-27T00:33:41;99588.09;;;25.41;100.00
11880;BME280;5999;43.256;27.816;2022-08-27T00:36:09;99601.66;;;25.48;100.00
11880;BME280;5999;43.256;27.816;2022-08-27T00:38:37;99594.63;;;25.46;100.00
11880;BME280;5999;43.256;27.816;2022-08-27T00:41:04;99587.38;;;25.47;100.00
11880;BME280;5999;43.256;27.816;2022-08-27T00:43:49;99575.38;;;25.50;100.00
11880;BME280;5999;43.256;27.816;2022-08-27T00:46:22;99581.97;;;25.47;100.00
11880;BME280;5999;43.256;27.816;2022-08-27T00:48:51;99579.38;;;25.54;100.00
11880;BME280;5999;43.256;27.816;2022-08-27T00:51:19;99582.44;;;25.51;100.00
11880;BME280;5999;43.256;27.816;2022-08-27T00:53:47;99579.84;;;25.42;100.00
11880;BME280;5999;43.256;27.816;2022-08-27T00:56:18;99581.88;;;25.40;100.00
11880;BME280;5999;43.256;27.816;2022-08-27T00:58:49;99580.19;;;25.39;100.00
11880;BME280;5999;43.256;27.816;2022-08-27T01:01:19;99573.22;;;25.30;100.00
11880;BME280;5999;43.256;27.816;2022-08-27T01:03:52;99574.69;;;25.33;100.00
11880;BME280;5999;43.256;27.816;2022-08-27T01:06:22;99576.66;;;25.39;100.00
11880;BME280;5999;43.256;27.816;2022-08-27T01:08:52;99568.56;;;25.39;100.00
11880;BME280;5999;43.256;27.816;2022-08-27T01:11:22;99567.09;;;25.36;100.00
11880;BME280;5999;43.256;27.816;2022-08-27T01:13:50;99562.69;;;25.35;100.00
11880;BME280;5999;43.256;27.816;2022-08-27T01:16:21;99556.59;;;25.41;100.00
11880;BME280;5999;43.256;27.816;2022-08-27T01:18:49;99556.13;;;25.38;100.00
11880;BME280;5999;43.256;27.816;2022-08-27T01:21:23;99553.88;;;25.41;100.00
11880;BME280;5999;43.256;27.816;2022-08-27T01:23:58;99557.06;;;25.45;100.00
11880;BME280;5999;43.256;27.816;2022-08-27T01:26:29;99557.63;;;25.40;100.00
11880;BME280;5999;43.256;27.816;2022-08-27T01:28:57;99558.44;;;25.41;100.00
11880;BME280;5999;43.256;27.816;2022-08-27T01:31:24;99549.16;;;25.43;100.00
11880;BME280;5999;43.256;27.816;2022-08-27T01:33:57;99557.16;;;25.52;100.00
11880;BME280;5999;43.256;27.816;2022-08-27T01:36:25;99543.41;;;25.46;100.00
11880;BME280;5999;43.256;27.816;2022-08-27T01:38:52;99550.00;;;25.44;100.00
11880;BME280;5999;43.256;27.816;2022-08-27T01:41:19;99550.09;;;25.51;100.00
11880;BME280;5999;43.256;27.816;2022-08-27T01:43:47;99552.16;;;25.49;100.00
11880;BME280;5999;43.256;27.816;2022-08-27T01:46:14;99545.94;;;25.48;100.00
11880;BME280;5999;43.256;27.816;2022-08-27T01:48:41;99543.03;;;25.50;100.00
11880;BME280;5999;43.256;27.816;2022-08-27T01:51:08;99540.97;;;25.52;100.00
11880;BME280;5999;43.256;27.816;2022-08-27T01:53:35;99538.84;;;25.47;100.00
11880;BME280;5999;43.256;27.816;2022-08-27T01:56:02;99537.09;;;25.54;100.00
11880;BME280;5999;43.256;27.816;2022-08-27T01:58:30;99531.25;;;25.51;100.00
11880;BME280;5999;43.256;27.816;2022-08-27T02:01:01;99533.47;;;25.47;100.00
11880;BME280;5999;43.256;27.816;2022-08-27T02:03:29;99538.19;;;25.45;100.00
11880;BME280;5999;43.256;27.816;2022-08-27T02:05:56;99528.53;;;25.51;100.00
11880;BME280;5999;43.256;27.816;2022-08-27T02:08:23;99532.63;;;25.46;100.00
11880;BME280;5999;43.256;27.816;2022-08-27T02:10:50;99534.28;;;25.48;100.00
11880;BME280;5999;43.256;27.816;2022-08-27T02:13:17;99527.59;;;25.43;100.00
11880;BME280;5999;43.256;27.816;2022-08-27T02:15:44;99530.84;;;25.39;100.00
11880;BME280;5999;43.256;27.816;2022-08-27T02:18:12;99528.06;;;25.32;100.00
11880;BME280;5999;43.256;27.816;2022-08-27T02:20:40;99529.44;;;25.28;100.00
11880;BME280;5999;43.256;27.816;2022-08-27T02:23:08;99524.06;;;25.28;100.00
11880;BME280;5999;43.256;27.816;2022-08-27T02:25:35;99527.75;;;25.27;100.00
11880;BME280;5999;43.256;27.816;2022-08-27T02:28:02;99530.50;;;25.19;100.00
11880;BME280;5999;43.256;27.816;2022-08-27T02:30:31;99534.41;;;25.16;100.00
11880;BME280;5999;43.256;27.816;2022-08-27T02:32:58;99534.94;;;25.12;100.00
11880;BME280;5999;43.256;27.816;2022-08-27T02:35:27;99539.03;;;25.08;100.00
11880;BME280;5999;43.256;27.816;2022-08-27T02:37:55;99535.56;;;24.99;100.00
11880;BME280;5999;43.256;27.816;2022-08-27T02:40:23;99537.19;;;24.85;100.00
11880;BME280;5999;43.256;27.816;2022-08-27T02:42:51;99536.97;;;24.86;100.00
11880;BME280;5999;43.256;27.816;2022-08-27T02:45:18;99537.78;;;24.95;100.00
11880;BME280;5999;43.256;27.816;2022-08-27T02:47:46;99533.09;;;24.89;100.00
11880;BME280;5999;43.256;27.816;2022-08-27T02:50:14;99538.44;;;24.97;100.00
11880;BME280;5999;43.256;27.816;2022-08-27T02:52:42;99538.59;;;24.96;100.00
11880;BME280;5999;43.256;27.816;2022-08-27T02:55:11;99542.19;;;24.88;100.00
11880;BME280;5999;43.256;27.816;2022-08-27T02:57:38;99540.31;;;24.89;100.00
11880;BME280;5999;43.256;27.816;2022-08-27T03:00:07;99536.16;;;24.86;100.00
11880;BME280;5999;43.256;27.816;2022-08-27T03:02:37;99535.19;;;24.79;100.00
11880;BME280;5999;43.256;27.816;2022-08-27T03:05:05;99535.44;;;24.92;100.00
11880;BME280;5999;43.256;27.816;2022-08-27T03:07:32;99536.25;;;24.93;100.00
11880;BME280;5999;43.256;27.816;2022-08-27T03:10:00;99538.25;;;24.76;100.00
11880;BME280;5999;43.256;27.816;2022-08-27T03:12:27;99537.47;;;24.90;100.00
11880;BME280;5999;43.256;27.816;2022-08-27T03:14:53;99537.69;;;24.80;100.00
11880;BME280;5999;43.256;27.816;2022-08-27T03:17:20;99545.91;;;24.87;100.00
11880;BME280;5999;43.256;27.816;2022-08-27T03:20:06;99540.16;;;24.90;100.00
11880;BME280;5999;43.256;27.816;2022-08-27T03:22:33;99549.19;;;24.97;100.00
11880;BME280;5999;43.256;27.816;2022-08-27T03:25:02;99551.59;;;24.92;100.00
11880;BME280;5999;43.256;27.816;2022-08-27T03:27:29;99546.78;;;25.02;100.00
11880;BME280;5999;43.256;27.816;2022-08-27T03:29:56;99550.16;;;24.58;100.00
11880;BME280;5999;43.256;27.816;2022-08-27T03:32:23;99551.69;;;24.44;100.00
11880;BME280;5999;43.256;27.816;2022-08-27T03:34:50;99549.59;;;24.32;100.00
11880;BME280;5999;43.256;27.816;2022-08-27T03:37:17;99553.25;;;24.39;100.00
11880;BME280;5999;43.256;27.816;2022-08-27T03:39:44;99556.63;;;24.33;100.00
11880;BME280;5999;43.256;27.816;2022-08-27T03:42:11;99561.19;;;23.76;100.00
11880;BME280;5999;43.256;27.816;2022-08-27T03:44:38;99578.53;;;23.49;100.00
11880;BME280;5999;43.256;27.816;2022-08-27T03:47:05;99613.97;;;23.12;100.00
11880;BME280;5999;43.256;27.816;2022-08-27T03:49:32;99638.13;;;23.03;100.00
11880;BME280;5999;43.256;27.816;2022-08-27T03:51:59;99654.59;;;23.25;100.00
11880;BME280;5999;43.256;27.816;2022-08-27T03:54:26;99654.25;;;23.28;100.00
11880;BME280;5999;43.256;27.816;2022-08-27T03:56:52;99657.94;;;23.52;100.00
11880;BME280;5999;43.256;27.816;2022-08-27T03:59:20;99655.63;;;23.65;100.00
11880;BME280;5999;43.256;27.816;2022-08-27T04:01:47;99635.47;;;23.77;100.00
11880;BME280;5999;43.256;27.816;2022-08-27T04:04:14;99630.91;;;23.86;100.00
11880;BME280;5999;43.256;27.816;2022-08-27T04:06:41;99623.72;;;23.78;100.00
11880;BME280;5999;43.256;27.816;2022-08-27T04:09:07;99616.09;;;23.98;100.00
11880;BME280;5999;43.256;27.816;2022-08-27T04:11:34;99614.69;;;24.19;100.00
11880;BME280;5999;43.256;27.816;2022-08-27T04:14:03;99608.13;;;24.30;100.00
11880;BME280;5999;43.256;27.816;2022-08-27T04:16:31;99622.19;;;24.40;100.00
11880;BME280;5999;43.256;27.816;2022-08-27T04:18:58;99635.28;;;24.51;100.00
11880;BME280;5999;43.256;27.816;2022-08-27T04:21:25;99630.03;;;24.58;100.00
11880;BME280;5999;43.256;27.816;2022-08-27T04:23:52;99626.13;;;24.69;100.00
11880;BME280;5999;43.256;27.816;2022-08-27T04:26:19;99621.09;;;24.65;100.00
11880;BME280;5999;43.256;27.816;2022-08-27T04:28:46;99618.97;;;24.84;100.00
11880;BME280;5999;43.256;27.816;2022-08-27T04:31:14;99621.78;;;24.91;100.00
11880;BME280;5999;43.256;27.816;2022-08-27T04:33:42;99604.59;;;25.15;100.00
11880;BME280;5999;43.256;27.816;2022-08-27T04:36:10;99601.38;;;25.28;100.00
11880;BME280;5999;43.256;27.816;2022-08-27T04:38:37;99598.03;;;25.40;100.00
11880;BME280;5999;43.256;27.816;2022-08-27T04:41:05;99591.94;;;25.46;100.00
11880;BME280;5999;43.256;27.816;2022-08-27T04:43:50;99585.41;;;25.56;100.00
11880;BME280;5999;43.256;27.816;2022-08-27T04:46:21;99587.22;;;25.63;100.00
11880;BME280;5999;43.256;27.816;2022-08-27T04:48:49;99580.03;;;25.56;100.00
11880;BME280;5999;43.256;27.816;2022-08-27T04:51:17;99576.63;;;25.24;100.00
11880;BME280;5999;43.256;27.816;2022-08-27T04:53:44;99576.91;;;25.29;100.00
11880;BME280;5999;43.256;27.816;2022-08-27T04:56:14;99579.91;;;25.34;100.00
11880;BME280;5999;43.256;27.816;2022-08-27T04:58:41;99575.28;;;25.43;100.00
11880;BME280;5999;43.256;27.816;2022-08-27T05:01:08;99578.50;;;25.23;100.00
11880;BME280;5999;43.256;27.816;2022-08-27T05:03:40;99586.31;;;25.33;100.00
11880;BME280;5999;43.256;27.816;2022-08-27T05:06:08;99580.09;;;25.48;100.00
11880;BME280;5999;43.256;27.816;2022-08-27T05:08:35;99586.38;;;25.63;100.00
11880;BME280;5999;43.256;27.816;2022-08-27T05:11:05;99582.56;;;25.72;100.00
11880;BME280;5999;43.256;27.816;2022-08-27T05:13:32;99583.34;;;25.81;100.00
11880;BME280;5999;43.256;27.816;2022-08-27T05:16:02;99590.88;;;25.85;100.00
11880;BME280;5999;43.256;27.816;2022-08-27T05:18:29;99594.63;;;25.99;100.00
11880;BME280;5999;43.256;27.816;2022-08-27T05:20:56;99587.53;;;26.13;100.00
11880;BME280;5999;43.256;27.816;2022-08-27T05:23:24;99585.22;;;26.10;100.00
11880;BME280;5999;43.256;27.816;2022-08-27T05:25:53;99596.84;;;25.58;100.00
11880;BME280;5999;43.256;27.816;2022-08-27T05:28:22;99591.81;;;25.40;100.00
11880;BME280;5999;43.256;27.816;2022-08-27T05:30:51;99600.94;;;25.54;100.00
11880;BME280;5999;43.256;27.816;2022-08-27T05:33:21;99602.38;;;25.79;100.00
11880;BME280;5999;43.256;27.816;2022-08-27T05:35:50;99610.75;;;25.84;100.00
11880;BME280;5999;43.256;27.816;2022-08-27T05:38:17;99604.28;;;26.23;100.00
11880;BME280;5999;43.256;27.816;2022-08-27T05:40:45;99595.88;;;26.63;100.00
11880;BME280;5999;43.256;27.816;2022-08-27T05:43:14;99597.41;;;27.09;100.00
11880;BME280;5999;43.256;27.816;2022-08-27T05:45:42;99591.09;;;27.44;100.00
11880;BME280;5999;43.256;27.816;2022-08-27T05:48:10;99579.78;;;27.34;100.00
11880;BME280;5999;43.256;27.816;2022-08-27T05:50:37;99583.06;;;27.58;100.00
11880;BME280;5999;43.256;27.816;2022-08-27T05:53:05;99577.22;;;27.82;100.00
11880;BME280;5999;43.256;27.816;2022-08-27T05:55:36;99574.91;;;27.79;100.00
11880;BME280;5999;43.256;27.816;2022-08-27T05:58:05;99586.72;;;28.00;100.00
11880;BME280;5999;43.256;27.816;2022-08-27T06:00:32;99580.97;;;28.16;100.00
11880;BME280;5999;43.256;27.816;2022-08-27T06:03:17;99581.19;;;28.15;100.00
11880;BME280;5999;43.256;27.816;2022-08-27T06:05:44;99572.44;;;28.19;100.00
11880;BME280;5999;43.256;27.816;2022-08-27T06:08:11;99574.75;;;28.22;100.00
11880;BME280;5999;43.256;27.816;2022-08-27T06:10:39;99572.28;;;28.28;100.00
11880;BME280;5999;43.256;27.816;2022-08-27T06:13:08;99575.78;;;28.21;100.00
11880;BME280;5999;43.256;27.816;2022-08-27T06:15:35;99580.19;;;28.22;100.00
11880;BME280;5999;43.256;27.816;2022-08-27T06:18:02;99585.81;;;28.28;100.00
11880;BME280;5999;43.256;27.816;2022-08-27T06:20:29;99583.00;;;28.49;100.00
11880;BME280;5999;43.256;27.816;2022-08-27T06:22:56;99596.81;;;28.61;100.00
11880;BME280;5999;43.256;27.816;2022-08-27T06:25:23;99589.91;;;28.58;100.00
11880;BME280;5999;43.256;27.816;2022-08-27T06:27:50;99598.19;;;28.43;100.00
11880;BME280;5999;43.256;27.816;2022-08-27T06:30:18;99595.50;;;28.50;100.00
11880;BME280;5999;43.256;27.816;2022-08-27T06:32:45;99609.06;;;28.15;100.00
11880;BME280;5999;43.256;27.816;2022-08-27T06:35:12;99608.56;;;27.98;100.00
11880;BME280;5999;43.256;27.816;2022-08-27T06:37:39;99609.41;;;27.99;100.00
11880;BME280;5999;43.256;27.816;2022-08-27T06:40:06;99613.59;;;28.01;100.00
11880;BME280;5999;43.256;27.816;2022-08-27T06:42:34;99611.34;;;27.83;100.00
11880;BME280;5999;43.256;27.816;2022-08-27T06:45:02;99608.56;;;27.98;100.00
11880;BME280;5999;43.256;27.816;2022-08-27T06:47:31;99612.19;;;27.56;100.00
11880;BME280;5999;43.256;27.816;2022-08-27T06:49:58;99614.44;;;27.80;100.00
11880;BME280;5999;43.256;27.816;2022-08-27T06:52:25;99618.44;;;27.84;100.00
11880;BME280;5999;43.256;27.816;2022-08-27T06:54:52;99608.25;;;28.15;100.00
11880;BME280;5999;43.256;27.816;2022-08-27T06:57:19;99606.59;;;28.14;100.00
11880;BME280;5999;43.256;27.816;2022-08-27T06:59:46;99610.19;;;28.69;100.00
11880;BME280;5999;43.256;27.816;2022-08-27T07:02:14;99598.63;;;29.62;100.00
11880;BME280;5999;43.256;27.816;2022-08-27T07:04:41;99598.44;;;29.17;100.00
11880;BME280;5999;43.256;27.816;2022-08-27T07:07:11;99604.47;;;29.25;99.83
11880;BME280;5999;43.256;27.816;2022-08-27T07:09:39;99610.25;;;30.22;94.95
11880;BME280;5999;43.256;27.816;2022-08-27T07:12:06;99610.59;;;30.91;83.53
11880;BME280;5999;43.256;27.816;2022-08-27T07:14:33;99606.13;;;31.10;81.55
11880;BME280;5999;43.256;27.816;2022-08-27T07:17:00;99606.81;;;31.56;73.05
11880;BME280;5999;43.256;27.816;2022-08-27T07:19:27;99623.16;;;31.24;74.40
11880;BME280;5999;43.256;27.816;2022-08-27T07:21:56;99616.00;;;31.61;72.10
11880;BME280;5999;43.256;27.816;2022-08-27T07:24:24;99619.78;;;31.29;68.67
11880;BME280;5999;43.256;27.816;2022-08-27T07:26:51;99615.84;;;30.93;70.04
11880;BME280;5999;43.256;27.816;2022-08-27T07:29:18;99609.44;;;31.12;70.91
11880;BME280;5999;43.256;27.816;2022-08-27T07:31:45;99612.47;;;31.79;67.47
11880;BME280;5999;43.256;27.816;2022-08-27T07:34:12;99612.00;;;32.08;60.74
11880;BME280;5999;43.256;27.816;2022-08-27T07:36:39;99607.84;;;33.21;59.62
11880;BME280;5999;43.256;27.816;2022-08-27T07:39:07;99609.50;;;34.40;54.40
11880;BME280;5999;43.256;27.816;2022-08-27T07:41:34;99611.69;;;35.24;49.34
11880;BME280;5999;43.256;27.816;2022-08-27T07:44:22;99615.13;;;36.21;44.82
11880;BME280;5999;43.256;27.816;2022-08-27T07:46:53;99617.47;;;36.56;42.68
11880;BME280;5999;43.256;27.816;2022-08-27T07:49:20;99613.75;;;36.68;42.24
11880;BME280;5999;43.256;27.816;2022-08-27T07:51:48;99612.34;;;36.87;40.96
11880;BME280;5999;43.256;27.816;2022-08-27T07:54:16;99607.38;;;37.11;40.54
11880;BME280;5999;43.256;27.816;2022-08-27T07:56:44;99608.91;;;37.62;40.13
11880;BME280;5999;43.256;27.816;2022-08-27T07:59:11;99606.03;;;37.84;39.15
11880;BME280;5999;43.256;27.816;2022-08-27T08:01:38;99603.75;;;38.18;40.60
11880;BME280;5999;43.256;27.816;2022-08-27T08:04:07;99609.19;;;38.76;39.07
11880;BME280;5999;43.256;27.816;2022-08-27T08:06:36;99611.63;;;38.04;37.90
11880;BME280;5999;43.256;27.816;2022-08-27T08:09:04;99609.66;;;36.92;38.93
11880;BME280;5999;43.256;27.816;2022-08-27T08:11:31;99613.63;;;37.66;38.06
11880;BME280;5999;43.256;27.816;2022-08-27T08:13:59;99614.91;;;37.21;37.75
11880;BME280;5999;43.256;27.816;2022-08-27T08:16:27;99610.59;;;38.05;37.35
11880;BME280;5999;43.256;27.816;2022-08-27T08:18:54;99606.75;;;38.79;36.03
11880;BME280;5999;43.256;27.816;2022-08-27T08:21:21;99613.34;;;38.84;34.92
11880;BME280;5999;43.256;27.816;2022-08-27T08:23:48;99612.81;;;38.82;34.50
11880;BME280;5999;43.256;27.816;2022-08-27T08:26:15;99612.50;;;38.78;35.18
11880;BME280;5999;43.256;27.816;2022-08-27T08:28:43;99615.06;;;39.10;34.16
11880;BME280;5999;43.256;27.816;2022-08-27T08:31:10;99603.53;;;39.24;34.33
11880;BME280;5999;43.256;27.816;2022-08-27T08:33:38;99614.25;;;39.71;33.61
11880;BME280;5999;43.256;27.816;2022-08-27T08:36:07;99610.69;;;39.45;33.64
11880;BME280;5999;43.256;27.816;2022-08-27T08:38:35;99610.41;;;39.62;32.45
11880;BME280;5999;43.256;27.816;2022-08-27T08:41:03;99604.28;;;39.96;32.47
11880;BME280;5999;43.256;27.816;2022-08-27T08:43:35;99610.94;;;39.74;32.66
11880;BME280;5999;43.256;27.816;2022-08-27T08:46:10;99604.88;;;39.93;31.70
11880;BME280;5999;43.256;27.816;2022-08-27T08:48:40;99612.66;;;40.46;30.96
11880;BME280;5999;43.256;27.816;2022-08-27T08:51:15;99607.63;;;40.58;31.39
11880;BME280;5999;43.256;27.816;2022-08-27T08:53:49;99593.06;;;40.47;29.99
11880;BME280;5999;43.256;27.816;2022-08-27T08:56:22;99602.47;;;40.46;30.88
11880;BME280;5999;43.256;27.816;2022-08-27T08:58:54;99605.41;;;39.90;29.89
11880;BME280;5999;43.256;27.816;2022-08-27T09:01:26;99601.47;;;40.22;30.75
11880;BME280;5999;43.256;27.816;2022-08-27T09:03:55;99604.69;;;38.44;31.20
11880;BME280;5999;43.256;27.816;2022-08-27T09:06:35;99595.13;;;38.57;31.93
11880;BME280;5999;43.256;27.816;2022-08-27T09:09:12;99599.84;;;38.82;31.60
11880;BME280;5999;43.256;27.816;2022-08-27T09:11:48;99596.75;;;37.20;32.58
11880;BME280;5999;43.256;27.816;2022-08-27T09:14:25;99602.47;;;37.46;34.91
11880;BME280;5999;43.256;27.816;2022-08-27T09:16:58;99606.44;;;38.61;32.87
11880;BME280;5999;43.256;27.816;2022-08-27T09:19:26;99604.34;;;39.55;31.87
11880;BME280;5999;43.256;27.816;2022-08-27T09:21:59;99609.31;;;39.53;31.17
11880;BME280;5999;43.256;27.816;2022-08-27T09:24:33;99605.47;;;39.54;31.02
11880;BME280;5999;43.256;27.816;2022-08-27T09:27:02;99616.47;;;39.18;29.89
11880;BME280;5999;43.256;27.816;2022-08-27T09:29:30;99612.50;;;40.22;30.96
11880;BME280;5999;43.256;27.816;2022-08-27T09:31:59;99599.31;;;38.80;30.28
11880;BME280;5999;43.256;27.816;2022-08-27T09:34:32;99599.50;;;37.95;30.69
11880;BME280;5999;43.256;27.816;2022-08-27T09:37:03;99603.16;;;38.74;31.16
11880;BME280;5999;43.256;27.816;2022-08-27T09:39:46;99599.41;;;36.60;33.17
11880;BME280;5999;43.256;27.816;2022-08-27T09:42:25;99599.53;;;35.88;33.87
11880;BME280;5999;43.256;27.816;2022-08-27T09:44:53;99599.09;;;36.35;33.19
11880;BME280;5999;43.256;27.816;2022-08-27T09:47:21;99592.97;;;37.26;34.05
11880;BME280;5999;43.256;27.816;2022-08-27T09:49:58;99597.06;;;38.56;32.40
11880;BME280;5999;43.256;27.816;2022-08-27T09:52:31;99595.16;;;38.67;30.58
11880;BME280;5999;43.256;27.816;2022-08-27T09:54:59;99580.75;;;37.49;31.25
11880;BME280;5999;43.256;27.816;2022-08-27T09:57:32;99594.66;;;38.12;32.61
11880;BME280;5999;43.256;27.816;2022-08-27T10:00:00;99591.66;;;39.13;30.78
11880;BME280;5999;43.256;27.816;2022-08-27T10:02:28;99592.19;;;39.92;29.44
11880;BME280;5999;43.256;27.816;2022-08-27T10:04:57;99598.25;;;40.59;29.46
11880;BME280;5999;43.256;27.816;2022-08-27T10:07:33;99598.16;;;41.19;28.34
11880;BME280;5999;43.256;27.816;2022-08-27T10:10:08;99597.09;;;40.70;28.81
11880;BME280;5999;43.256;27.816;2022-08-27T10:12:45;99599.91;;;39.85;29.29
11880;BME280;5999;43.256;27.816;2022-08-27T10:15:15;99602.09;;;38.95;30.08
11880;BME280;5999;43.256;27.816;2022-08-27T10:17:51;99591.09;;;38.95;30.57
11880;BME280;5999;43.256;27.816;2022-08-27T10:20:28;99581.75;;;39.22;29.13
11880;BME280;5999;43.256;27.816;2022-08-27T10:23:08;99587.00;;;39.13;30.92
11880;BME280;5999;43.256;27.816;2022-08-27T10:25:45;99587.25;;;34.48;41.12
11880;BME280;5999;43.256;27.816;2022-08-27T10:28:24;99589.19;;;34.36;43.71
11880;BME280;5999;43.256;27.816;2022-08-27T10:31:07;99587.34;;;34.25;43.64
11880;BME280;5999;43.256;27.816;2022-08-27T10:33:41;99587.63;;;33.64;44.16
11880;BME280;5999;43.256;27.816;2022-08-27T10:49:04;99584.31;;;36.85;39.76
11880;BME280;5999;43.256;27.816;2022-08-27T10:51:46;99592.44;;;35.53;41.01
11880;BME280;5999;43.256;27.816;2022-08-27T10:54:24;99583.88;;;33.47;42.47
11880;BME280;5999;43.256;27.816;2022-08-27T10:56:56;99583.25;;;32.79;44.51
11880;BME280;5999;43.256;27.816;2022-08-27T10:59:32;99585.91;;;32.55;44.69
11880;BME280;5999;43.256;27.816;2022-08-27T11:02:13;99580.38;;;32.25;43.06
11880;BME280;5999;43.256;27.816;2022-08-27T11:04:49;99580.00;;;32.21;46.61
11880;BME280;5999;43.256;27.816;2022-08-27T11:07:22;99579.38;;;32.38;47.86
11880;BME280;5999;43.256;27.816;2022-08-27T11:09:55;99585.25;;;32.72;46.70
11880;BME280;5999;43.256;27.816;2022-08-27T11:12:27;99578.66;;;32.91;44.34
11880;BME280;5999;43.256;27.816;2022-08-27T11:14:58;99574.50;;;33.19;45.91
11880;BME280;5999;43.256;27.816;2022-08-27T11:17:33;99569.41;;;32.80;47.36
11880;BME280;5999;43.256;27.816;2022-08-27T11:20:05;99574.13;;;32.85;46.85
11880;BME280;5999;43.256;27.816;2022-08-27T11:22:36;99578.41;;;32.81;48.12
11880;BME280;5999;43.256;27.816;2022-08-27T11:25:11;99580.72;;;33.50;46.03
11880;BME280;5999;43.256;27.816;2022-08-27T11:27:41;99581.41;;;34.68;44.29
11880;BME280;5999;43.256;27.816;2022-08-27T11:30:15;99578.34;;;33.89;44.10
11880;BME280;5999;43.256;27.816;2022-08-27T11:32:53;99586.63;;;33.47;43.14
11880;BME280;5999;43.256;27.816;2022-08-27T11:35:27;99572.81;;;34.36;42.89
11880;BME280;5999;43.256;27.816;2022-08-27T11:38:15;99574.88;;;35.32;43.14
11880;BME280;5999;43.256;27.816;2022-08-27T11:41:00;99570.25;;;33.47;43.58
11880;BME280;5999;43.256;27.816;2022-08-27T11:43:33;99572.34;;;33.09;43.97
11880;BME280;5999;43.256;27.816;2022-08-27T11:46:03;99563.84;;;33.29;44.48
11880;BME280;5999;43.256;27.816;2022-08-27T11:48:33;99561.72;;;33.43;45.11
11880;BME280;5999;43.256;27.816;2022-08-27T11:51:04;99566.53;;;34.12;43.22
11880;BME280;5999;43.256;27.816;2022-08-27T11:53:33;99553.78;;;34.41;42.78
11880;BME280;5999;43.256;27.816;2022-08-27T11:56:11;99558.50;;;34.17;41.26
11880;BME280;5999;43.256;27.816;2022-08-27T11:58:41;99559.09;;;33.36;43.95
11880;BME280;5999;43.256;27.816;2022-08-27T12:01:15;99541.75;;;33.42;44.02
11880;BME280;5999;43.256;27.816;2022-08-27T12:03:43;99561.09;;;32.87;45.20
11880;BME280;5999;43.256;27.816;2022-08-27T12:06:21;99554.19;;;32.73;45.46
11880;BME280;5999;43.256;27.816;2022-08-27T12:08:52;99552.25;;;32.92;44.20
11880;BME280;5999;43.256;27.816;2022-08-27T12:11:40;99558.53;;;32.92;47.57
11880;BME280;5999;43.256;27.816;2022-08-27T12:14:20;99566.16;;;33.02;47.58
11880;BME280;5999;43.256;27.816;2022-08-27T12:16:59;99565.44;;;33.07;47.09
11880;BME280;5999;43.256;27.816;2022-08-27T12:19:40;99563.50;;;32.95;47.98
11880;BME280;5999;43.256;27.816;2022-08-27T12:22:33;99567.16;;;32.40;49.34
11880;BME280;5999;43.256;27.816;2022-08-27T12:25:24;99588.66;;;31.93;57.06
11880;BME280;5999;43.256;27.816;2022-08-27T12:27:55;99571.22;;;32.01;57.09
11880;BME280;5999;43.256;27.816;2022-08-27T12:30:28;99566.13;;;32.60;55.39
11880;BME280;5999;43.256;27.816;2022-08-27T12:32:58;99559.94;;;32.16;56.52
11880;BME280;5999;43.256;27.816;2022-08-27T12:35:36;99562.25;;;32.49;60.84
11880;BME280;5999;43.256;27.816;2022-08-27T12:38:14;99563.94;;;32.80;64.68
11880;BME280;5999;43.256;27.816;2022-08-27T12:40:47;99571.16;;;31.39;69.87
11880;BME280;5999;43.256;27.816;2022-08-27T12:43:18;99576.50;;;31.52;68.81
11880;BME280;5999;43.256;27.816;2022-08-27T12:45:47;99573.69;;;32.39;68.23
11880;BME280;5999;43.256;27.816;2022-08-27T12:48:20;99568.25;;;32.39;67.21
11880;BME280;5999;43.256;27.816;2022-08-27T12:50:52;99570.19;;;32.02;72.07
11880;BME280;5999;43.256;27.816;2022-08-27T12:53:38;99573.63;;;30.83;65.45
11880;BME280;5999;43.256;27.816;2022-08-27T12:56:21;99579.97;;;31.34;59.90
11880;BME280;5999;43.256;27.816;2022-08-27T12:58:58;99582.06;;;31.82;56.84
11880;BME280;5999;43.256;27.816;2022-08-27T13:01:44;99587.66;;;32.80;51.38
11880;BME280;5999;43.256;27.816;2022-08-27T13:04:19;99583.91;;;32.93;50.08
11880;BME280;5999;43.256;27.816;2022-08-27T13:06:47;99582.84;;;31.90;55.74
11880;BME280;5999;43.256;27.816;2022-08-27T13:09:15;99597.38;;;31.83;54.78
11880;BME280;5999;43.256;27.816;2022-08-27T13:11:50;99587.84;;;32.30;61.06
11880;BME280;5999;43.256;27.816;2022-08-27T13:14:22;99570.16;;;32.57;59.37
11880;BME280;5999;43.256;27.816;2022-08-27T13:16:51;99594.44;;;32.03;59.30
11880;BME280;5999;43.256;27.816;2022-08-27T13:19:23;99587.69;;;31.62;62.79
11880;BME280;5999;43.256;27.816;2022-08-27T13:21:51;99576.84;;;32.06;62.45
11880;BME280;5999;43.256;27.816;2022-08-27T13:24:26;99589.50;;;31.94;69.90